Wetterdaten: Woche 12.05.14 - 18.05.14 (KW20)
Datum Zeit Temp. Aussen +5cm Feuchte Auss Luftdruck Regen Sonnenschein Regendauer UV Solar Windben
12.05.2014 00:00 9,9 C 7,2 C 85 % 1006,4 hPa 0,0 l/m 0,00 h 0,00 h 0,0 UV-I 0 W/m 11,9 km/h (2 Bft)
12.05.2014 01:00 9,7 C 7,5 C 84 % 1006,8 hPa 0,0 l/m 0,00 h 0,00 h 0,0 UV-I 0 W/m 13,3 km/h (3 Bft)
12.05.2014 02:00 9,7 C 8,0 C 84 % 1006,9 hPa 0,0 l/m 0,00 h 0,00 h 0,0 UV-I 0 W/m 13,0 km/h (3 Bft)
12.05.2014 03:00 9,4 C 7,8 C 85 % 1007,0 hPa 0,0 l/m 0,00 h 0,03 h 0,0 UV-I 0 W/m 16,8 km/h (3 Bft)
12.05.2014 04:00 9,2 C 7,8 C 87 % 1007,0 hPa 0,0 l/m 0,00 h 0,42 h 0,0 UV-I 0 W/m 16,7 km/h (3 Bft)
12.05.2014 05:00 9,3 C 7,8 C 87 % 1007,2 hPa 0,0 l/m 0,00 h 0,00 h 0,0 UV-I 5 W/m 16,3 km/h (3 Bft)
12.05.2014 06:00 9,0 C 7,8 C 87 % 1007,6 hPa 0,0 l/m 0,00 h 0,00 h 0,0 UV-I 15 W/m 17,1 km/h (3 Bft)
12.05.2014 07:00 8,9 C 7,9 C 87 % 1008,2 hPa 0,0 l/m 0,00 h 0,00 h 0,0 UV-I 42 W/m 13,5 km/h (3 Bft)
12.05.2014 08:00 9,5 C 8,8 C 87 % 1008,5 hPa 0,0 l/m 0,00 h 0,00 h 0,0 UV-I 118 W/m 13,7 km/h (3 Bft)
12.05.2014 09:00 10,6 C 10,4 C 85 % 1008,8 hPa 0,0 l/m 0,07 h 0,00 h 0,0 UV-I 231 W/m 12,7 km/h (3 Bft)
12.05.2014 10:00 11,7 C 11,8 C 81 % 1008,9 hPa 0,0 l/m 0,17 h 0,00 h 0,9 UV-I 323 W/m 16,8 km/h (3 Bft)
12.05.2014 11:00 12,2 C 12,0 C 78 % 1008,9 hPa 0,0 l/m 0,07 h 0,00 h 1,0 UV-I 307 W/m 18,7 km/h (3 Bft)
12.05.2014 12:00 12,0 C 11,4 C 82 % 1009,1 hPa 0,0 l/m 0,07 h 0,37 h 1,2 UV-I 246 W/m 16,3 km/h (3 Bft)
12.05.2014 13:00 12,8 C 12,2 C 79 % 1009,1 hPa 0,4 l/m 0,15 h 0,30 h 1,4 UV-I 377 W/m 16,8 km/h (3 Bft)
12.05.2014 14:00 11,6 C 9,6 C 87 % 1009,1 hPa 2,6 l/m 0,00 h 0,72 h 0,8 UV-I 83 W/m 7,9 km/h (2 Bft)
12.05.2014 15:00 9,3 C 8,1 C 95 % 1010,0 hPa 4,6 l/m 0,00 h 0,72 h 0,7 UV-I 108 W/m 5,7 km/h (1 Bft)
12.05.2014 16:00 10,2 C 9,4 C 96 % 1010,2 hPa 0,8 l/m 0,00 h 0,60 h 0,8 UV-I 139 W/m 7,1 km/h (2 Bft)
12.05.2014 17:00 9,6 C 8,7 C 95 % 1010,4 hPa 0,4 l/m 0,00 h 0,95 h 0,0 UV-I 117 W/m 8,4 km/h (2 Bft)
12.05.2014 18:00 9,9 C 9,1 C 95 % 1010,5 hPa 0,0 l/m 0,00 h 0,85 h 0,0 UV-I 130 W/m 1,5 km/h (1 Bft)
12.05.2014 19:00 10,2 C 9,2 C 95 % 1010,6 hPa 0,0 l/m 0,00 h 0,38 h 0,0 UV-I 81 W/m 1,5 km/h (1 Bft)
12.05.2014 20:00 10,0 C 8,6 C 93 % 1010,9 hPa 0,0 l/m 0,00 h 0,00 h 0,0 UV-I 29 W/m 0,9 km/h (0 Bft)
12.05.2014 21:00 9,4 C 7,8 C 93 % 1011,2 hPa 0,0 l/m 0,00 h 0,07 h 0,0 UV-I 6 W/m 3,0 km/h (1 Bft)
12.05.2014 22:00 8,8 C 7,4 C 94 % 1011,6 hPa 0,2 l/m 0,00 h 0,27 h 0,0 UV-I 0 W/m 1,2 km/h (1 Bft)
12.05.2014 23:00 8,7 C 7,5 C 96 % 1012,1 hPa 0,6 l/m 0,00 h 0,62 h 0,0 UV-I 0 W/m 0,5 km/h (0 Bft)
13.05.2014 00:00 8,5 C 7,2 C 97 % 1012,2 hPa 0,2 l/m 0,00 h 0,25 h 0,0 UV-I 0 W/m 0,8 km/h (0 Bft)
13.05.2014 01:00 8,1 C 7,0 C 97 % 1012,1 hPa 0,0 l/m 0,00 h 0,07 h 0,0 UV-I 0 W/m 0,5 km/h (0 Bft)
13.05.2014 02:00 7,5 C 6,2 C 98 % 1012,1 hPa 0,0 l/m 0,00 h 0,00 h 0,0 UV-I 0 W/m 1,6 km/h (1 Bft)
13.05.2014 03:00 7,5 C 6,5 C 98 % 1012,0 hPa 0,0 l/m 0,00 h 0,00 h 0,0 UV-I 0 W/m 2,7 km/h (1 Bft)
13.05.2014 04:00 7,6 C 6,7 C 97 % 1012,2 hPa 0,0 l/m 0,00 h 0,00 h 0,0 UV-I 0 W/m 0,8 km/h (0 Bft)
13.05.2014 05:00 7,7 C 6,7 C 98 % 1012,3 hPa 0,0 l/m 0,00 h 0,00 h 0,0 UV-I 5 W/m 0,0 km/h (0 Bft)
13.05.2014 06:00 7,9 C 6,9 C 98 % 1012,6 hPa 0,0 l/m 0,00 h 0,30 h 0,0 UV-I 15 W/m 0,0 km/h (0 Bft)
13.05.2014 07:00 8,4 C 7,6 C 98 % 1012,9 hPa 0,0 l/m 0,00 h 0,00 h 0,0 UV-I 58 W/m 0,6 km/h (0 Bft)
13.05.2014 08:00 9,0 C 8,3 C 97 % 1013,5 hPa 0,4 l/m 0,00 h 0,37 h 0,0 UV-I 80 W/m 3,4 km/h (1 Bft)
13.05.2014 09:00 9,1 C 8,7 C 97 % 1013,9 hPa 0,2 l/m 0,00 h 0,62 h 0,5 UV-I 140 W/m 3,3 km/h (1 Bft)
13.05.2014 10:00 9,7 C 9,3 C 97 % 1014,4 hPa 0,0 l/m 0,00 h 0,17 h 0,9 UV-I 126 W/m 2,3 km/h (1 Bft)
13.05.2014 11:00 11,1 C 11,4 C 95 % 1014,7 hPa 0,0 l/m 0,33 h 0,00 h 1,6 UV-I 399 W/m 1,9 km/h (1 Bft)
13.05.2014 12:00 11,9 C 11,2 C 88 % 1015,0 hPa 2,2 l/m 0,13 h 0,47 h 1,3 UV-I 228 W/m 5,8 km/h (2 Bft)
13.05.2014 13:00 10,5 C 9,8 C 95 % 1015,5 hPa 0,0 l/m 0,00 h 0,33 h 0,6 UV-I 148 W/m 2,5 km/h (1 Bft)
13.05.2014 14:00 10,8 C 11,0 C 95 % 1016,2 hPa 0,2 l/m 0,13 h 0,37 h 1,4 UV-I 269 W/m 8,1 km/h (2 Bft)
13.05.2014 15:00 9,9 C 9,3 C 95 % 1016,9 hPa 1,6 l/m 0,00 h 0,42 h 0,5 UV-I 134 W/m 1,5 km/h (1 Bft)
13.05.2014 16:00 11,1 C 11,1 C 96 % 1017,2 hPa 0,0 l/m 0,23 h 0,00 h 0,9 UV-I 314 W/m 2,5 km/h (1 Bft)
13.05.2014 17:00 12,9 C 11,9 C 89 % 1017,5 hPa 0,0 l/m 0,33 h 0,00 h 0,7 UV-I 295 W/m 4,4 km/h (1 Bft)
13.05.2014 18:00 12,8 C 11,8 C 88 % 1018,0 hPa 0,0 l/m 0,03 h 0,00 h 0,0 UV-I 144 W/m 3,2 km/h (1 Bft)
13.05.2014 19:00 13,1 C 11,8 C 72 % 1018,7 hPa 0,0 l/m 0,10 h 0,00 h 0,0 UV-I 82 W/m 12,5 km/h (3 Bft)
13.05.2014 20:00 12,0 C 10,1 C 68 % 1019,7 hPa 0,0 l/m 0,00 h 0,00 h 0,0 UV-I 19 W/m 7,2 km/h (2 Bft)
13.05.2014 21:00 9,6 C 7,4 C 78 % 1020,6 hPa 0,0 l/m 0,00 h 0,00 h 0,0 UV-I 6 W/m 1,4 km/h (1 Bft)
13.05.2014 22:00 7,6 C 5,3 C 87 % 1021,7 hPa 0,0 l/m 0,00 h 0,00 h 0,0 UV-I 0 W/m 0,0 km/h (0 Bft)
13.05.2014 23:00 6,6 C 4,5 C 90 % 1022,5 hPa 0,0 l/m 0,00 h 0,00 h 0,0 UV-I 0 W/m 0,0 km/h (0 Bft)
14.05.2014 00:00 5,5 C 3,7 C 94 % 1023,2 hPa 0,0 l/m 0,00 h 0,00 h 0,0 UV-I 0 W/m 0,0 km/h (0 Bft)
14.05.2014 01:00 4,7 C 3,2 C 95 % 1023,7 hPa 0,0 l/m 0,00 h 0,00 h 0,0 UV-I 0 W/m 0,0 km/h (0 Bft)
14.05.2014 02:00 4,5 C 2,8 C 96 % 1024,1 hPa 0,0 l/m 0,00 h 0,00 h 0,0 UV-I 0 W/m 0,0 km/h (0 Bft)
14.05.2014 03:00 3,9 C 2,6 C 97 % 1024,5 hPa 0,0 l/m 0,00 h 0,00 h 0,0 UV-I 0 W/m 0,0 km/h (0 Bft)
14.05.2014 04:00 3,6 C 2,2 C 97 % 1024,9 hPa 0,0 l/m 0,00 h 0,00 h 0,0 UV-I 0 W/m 0,0 km/h (0 Bft)
14.05.2014 05:00 4,2 C 3,0 C 98 % 1025,5 hPa 0,0 l/m 0,00 h 0,00 h 0,0 UV-I 7 W/m 0,5 km/h (0 Bft)
14.05.2014 06:00 4,7 C 4,0 C 98 % 1025,8 hPa 0,0 l/m 0,00 h 0,00 h 0,0 UV-I 30 W/m 0,8 km/h (0 Bft)
14.05.2014 07:00 6,0 C 5,3 C 98 % 1026,3 hPa 0,0 l/m 0,00 h 0,00 h 0,0 UV-I 72 W/m 2,8 km/h (1 Bft)
14.05.2014 08:00 8,0 C 7,5 C 97 % 1026,9 hPa 0,0 l/m 0,30 h 0,00 h 0,0 UV-I 207 W/m 0,9 km/h (0 Bft)
14.05.2014 09:00 10,4 C 9,6 C 89 % 1027,3 hPa 0,0 l/m 0,75 h 0,00 h 0,8 UV-I 441 W/m 4,0 km/h (1 Bft)
14.05.2014 10:00 12,0 C 13,9 C 79 % 1027,5 hPa 0,0 l/m 0,42 h 0,00 h 1,1 UV-I 431 W/m 7,6 km/h (2 Bft)
14.05.2014 11:00 13,5 C 15,2 C 71 % 1027,6 hPa 0,0 l/m 0,58 h 0,00 h 2,3 UV-I 588 W/m 9,7 km/h (2 Bft)
14.05.2014 12:00 14,7 C 16,8 C 65 % 1027,6 hPa 0,0 l/m 0,78 h 0,00 h 2,7 UV-I 815 W/m 9,0 km/h (2 Bft)
14.05.2014 13:00 15,5 C 16,0 C 61 % 1027,5 hPa 0,0 l/m 0,40 h 0,00 h 2,1 UV-I 547 W/m 8,1 km/h (2 Bft)
14.05.2014 14:00 14,2 C 13,7 C 66 % 1027,3 hPa 0,0 l/m 0,23 h 0,30 h 2,3 UV-I 267 W/m 13,1 km/h (3 Bft)
14.05.2014 15:00 11,4 C 10,7 C 85 % 1027,8 hPa 0,0 l/m 0,00 h 0,87 h 0,5 UV-I 223 W/m 7,2 km/h (2 Bft)
14.05.2014 16:00 12,7 C 12,6 C 79 % 1027,9 hPa 0,0 l/m 0,35 h 0,12 h 1,3 UV-I 304 W/m 8,4 km/h (2 Bft)
14.05.2014 17:00 12,5 C 11,4 C 81 % 1028,2 hPa 0,0 l/m 0,47 h 0,28 h 0,8 UV-I 348 W/m 6,9 km/h (2 Bft)
14.05.2014 18:00 12,8 C 12,0 C 74 % 1028,3 hPa 0,0 l/m 0,00 h 0,00 h 0,0 UV-I 120 W/m 8,5 km/h (2 Bft)
14.05.2014 19:00 12,0 C 10,9 C 75 % 1028,7 hPa 0,0 l/m 0,00 h 0,00 h 0,0 UV-I 50 W/m 7,4 km/h (2 Bft)
14.05.2014 20:00 11,6 C 10,6 C 77 % 1029,2 hPa 0,0 l/m 0,17 h 0,00 h 0,0 UV-I 41 W/m 9,8 km/h (2 Bft)
14.05.2014 21:00 10,4 C 8,9 C 75 % 1030,1 hPa 0,0 l/m 0,03 h 0,00 h 0,0 UV-I 8 W/m 6,5 km/h (2 Bft)
14.05.2014 22:00 8,7 C 6,9 C 78 % 1030,8 hPa 0,0 l/m 0,00 h 0,00 h 0,0 UV-I 0 W/m 1,7 km/h (1 Bft)
14.05.2014 23:00 7,7 C 6,1 C 83 % 1031,3 hPa 0,0 l/m 0,00 h 0,00 h 0,0 UV-I 0 W/m 0,3 km/h (0 Bft)
15.05.2014 00:00 6,8 C 5,2 C 86 % 1031,9 hPa 0,0 l/m 0,00 h 0,00 h 0,0 UV-I 0 W/m 1,0 km/h (0 Bft)
15.05.2014 01:00 5,6 C 3,7 C 90 % 1032,3 hPa 0,0 l/m 0,00 h 0,00 h 0,0 UV-I 0 W/m 0,0 km/h (0 Bft)
15.05.2014 02:00 4,7 C 3,1 C 93 % 1032,4 hPa 0,0 l/m 0,00 h 0,00 h 0,0 UV-I 0 W/m 0,0 km/h (0 Bft)
15.05.2014 03:00 4,2 C 2,7 C 95 % 1032,3 hPa 0,0 l/m 0,00 h 0,00 h 0,0 UV-I 0 W/m 0,0 km/h (0 Bft)
15.05.2014 04:00 3,7 C 2,2 C 95 % 1032,6 hPa 0,0 l/m 0,00 h 0,00 h 0,0 UV-I 0 W/m 0,0 km/h (0 Bft)
15.05.2014 05:00 3,5 C 1,9 C 96 % 1033,0 hPa 0,0 l/m 0,00 h 0,00 h 0,0 UV-I 7 W/m 0,0 km/h (0 Bft)
15.05.2014 06:00 4,2 C 3,4 C 97 % 1033,3 hPa 0,0 l/m 0,00 h 0,00 h 0,0 UV-I 30 W/m 0,0 km/h (0 Bft)
15.05.2014 07:00 5,9 C 5,7 C 96 % 1033,9 hPa 0,0 l/m 0,00 h 0,00 h 0,0 UV-I 91 W/m 1,4 km/h (1 Bft)
15.05.2014 08:00 7,4 C 7,1 C 88 % 1034,2 hPa 0,0 l/m 0,00 h 0,00 h 0,0 UV-I 116 W/m 3,8 km/h (1 Bft)
15.05.2014 09:00 8,2 C 7,9 C 84 % 1034,7 hPa 0,0 l/m 0,00 h 0,00 h 0,0 UV-I 117 W/m 5,8 km/h (2 Bft)
15.05.2014 10:00 9,0 C 8,7 C 78 % 1035,0 hPa 0,0 l/m 0,00 h 0,00 h 0,0 UV-I 143 W/m 7,9 km/h (2 Bft)
15.05.2014 11:00 9,5 C 9,2 C 74 % 1035,4 hPa 0,0 l/m 0,00 h 0,00 h 0,6 UV-I 192 W/m 11,5 km/h (2 Bft)
15.05.2014 12:00 10,1 C 10,3 C 74 % 1035,5 hPa 0,0 l/m 0,00 h 0,00 h 0,8 UV-I 250 W/m 10,3 km/h (2 Bft)
15.05.2014 13:00 11,8 C 12,7 C 72 % 1035,2 hPa 0,0 l/m 0,67 h 0,00 h 2,4 UV-I 678 W/m 10,1 km/h (2 Bft)
15.05.2014 14:00 12,2 C 12,6 C 72 % 1034,9 hPa 0,0 l/m 0,37 h 0,00 h 1,7 UV-I 375 W/m 11,6 km/h (2 Bft)
15.05.2014 15:00 13,0 C 13,7 C 70 % 1034,8 hPa 0,0 l/m 0,57 h 0,00 h 1,7 UV-I 408 W/m 12,2 km/h (2 Bft)
15.05.2014 16:00 12,6 C 12,4 C 72 % 1034,7 hPa 0,0 l/m 0,10 h 0,00 h 0,8 UV-I 270 W/m 13,1 km/h (3 Bft)
15.05.2014 17:00 13,0 C 13,1 C 71 % 1034,8 hPa 0,0 l/m 0,30 h 0,00 h 0,7 UV-I 278 W/m 12,2 km/h (3 Bft)
15.05.2014 18:00 12,6 C 12,2 C 72 % 1034,7 hPa 0,0 l/m 0,00 h 0,00 h 0,0 UV-I 137 W/m 8,9 km/h (2 Bft)
15.05.2014 19:00 12,4 C 11,6 C 73 % 1034,6 hPa 0,0 l/m 0,00 h 0,00 h 0,0 UV-I 62 W/m 6,4 km/h (2 Bft)
15.05.2014 20:00 11,4 C 9,8 C 78 % 1034,7 hPa 0,0 l/m 0,00 h 0,00 h 0,0 UV-I 22 W/m 0,8 km/h (0 Bft)
15.05.2014 21:00 10,4 C 8,6 C 85 % 1034,8 hPa 0,0 l/m 0,00 h 0,00 h 0,0 UV-I 8 W/m 0,0 km/h (0 Bft)
15.05.2014 22:00 9,0 C 7,0 C 90 % 1034,9 hPa 0,0 l/m 0,00 h 0,00 h 0,0 UV-I 0 W/m 0,0 km/h (0 Bft)
15.05.2014 23:00 7,6 C 5,8 C 94 % 1035,2 hPa 0,0 l/m 0,00 h 0,00 h 0,0 UV-I 0 W/m 0,0 km/h (0 Bft)
16.05.2014 00:00 6,8 C 5,0 C 95 % 1035,0 hPa 0,0 l/m 0,00 h 0,00 h 0,0 UV-I 0 W/m 0,0 km/h (0 Bft)
16.05.2014 01:00 6,4 C 4,4 C 95 % 1034,8 hPa 0,0 l/m 0,00 h 0,00 h 0,0 UV-I 0 W/m 0,0 km/h (0 Bft)
16.05.2014 02:00 5,9 C 4,1 C 96 % 1034,4 hPa 0,0 l/m 0,00 h 0,00 h 0,0 UV-I 0 W/m 0,0 km/h (0 Bft)
16.05.2014 03:00 5,7 C 4,1 C 97 % 1034,1 hPa 0,0 l/m 0,00 h 0,00 h 0,0 UV-I 0 W/m 0,0 km/h (0 Bft)
16.05.2014 04:00 5,2 C 3,4 C 97 % 1033,7 hPa 0,0 l/m 0,00 h 0,00 h 0,0 UV-I 0 W/m 0,0 km/h (0 Bft)
16.05.2014 05:00 4,6 C 3,1 C 97 % 1033,5 hPa 0,0 l/m 0,00 h 0,00 h 0,0 UV-I 7 W/m 0,0 km/h (0 Bft)
16.05.2014 06:00 4,7 C 3,5 C 98 % 1033,4 hPa 0,0 l/m 0,00 h 0,00 h 0,0 UV-I 26 W/m 0,0 km/h (0 Bft)
16.05.2014 07:00 6,2 C 4,9 C 98 % 1033,2 hPa 0,0 l/m 0,00 h 0,00 h 0,0 UV-I 43 W/m 0,0 km/h (0 Bft)
16.05.2014 08:00 8,6 C 7,6 C 97 % 1033,1 hPa 0,0 l/m 0,97 h 0,00 h 0,0 UV-I 292 W/m 1,1 km/h (0 Bft)
16.05.2014 09:00 11,1 C 10,7 C 86 % 1033,0 hPa 0,0 l/m 0,97 h 0,00 h 0,9 UV-I 450 W/m 4,7 km/h (1 Bft)
16.05.2014 10:00 13,2 C 16,7 C 73 % 1032,7 hPa 0,0 l/m 0,97 h 0,00 h 2,0 UV-I 616 W/m 8,1 km/h (2 Bft)
16.05.2014 11:00 14,6 C 16,6 C 70 % 1032,3 hPa 0,0 l/m 0,80 h 0,00 h 2,8 UV-I 625 W/m 10,5 km/h (2 Bft)
16.05.2014 12:00 15,4 C 16,8 C 69 % 1031,6 hPa 0,0 l/m 0,47 h 0,00 h 2,5 UV-I 574 W/m 9,6 km/h (2 Bft)
16.05.2014 13:00 16,2 C 16,6 C 67 % 1030,8 hPa 0,0 l/m 0,40 h 0,00 h 2,5 UV-I 576 W/m 13,9 km/h (3 Bft)
16.05.2014 14:00 16,8 C 16,7 C 64 % 1030,0 hPa 0,0 l/m 0,57 h 0,00 h 3,0 UV-I 600 W/m 15,9 km/h (3 Bft)
16.05.2014 15:00 17,4 C 18,4 C 62 % 1029,3 hPa 0,0 l/m 0,63 h 0,00 h 2,6 UV-I 606 W/m 14,4 km/h (3 Bft)
16.05.2014 16:00 17,7 C 17,6 C 60 % 1028,7 hPa 0,0 l/m 0,40 h 0,00 h 1,6 UV-I 456 W/m 13,7 km/h (3 Bft)
16.05.2014 17:00 17,8 C 16,7 C 57 % 1027,9 hPa 0,0 l/m 0,87 h 0,00 h 1,1 UV-I 497 W/m 16,9 km/h (3 Bft)
16.05.2014 18:00 17,8 C 16,2 C 55 % 1027,4 hPa 0,0 l/m 0,27 h 0,00 h 0,6 UV-I 165 W/m 12,4 km/h (3 Bft)
16.05.2014 19:00 17,4 C 15,7 C 51 % 1026,9 hPa 0,0 l/m 0,00 h 0,00 h 0,0 UV-I 37 W/m 11,8 km/h (2 Bft)
16.05.2014 20:00 16,4 C 14,5 C 50 % 1026,8 hPa 0,0 l/m 0,00 h 0,00 h 0,0 UV-I 21 W/m 6,7 km/h (2 Bft)
16.05.2014 21:00 13,7 C 11,2 C 63 % 1026,9 hPa 0,0 l/m 0,00 h 0,00 h 0,0 UV-I 7 W/m 0,1 km/h (0 Bft)
16.05.2014 22:00 11,5 C 8,9 C 75 % 1026,8 hPa 0,0 l/m 0,00 h 0,00 h 0,0 UV-I 0 W/m 0,0 km/h (0 Bft)
16.05.2014 23:00 10,1 C 7,9 C 81 % 1026,4 hPa 0,0 l/m 0,00 h 0,00 h 0,0 UV-I 0 W/m 0,0 km/h (0 Bft)
17.05.2014 00:00 9,2 C 7,2 C 87 % 1026,2 hPa 0,0 l/m 0,00 h 0,00 h 0,0 UV-I 0 W/m 0,0 km/h (0 Bft)
17.05.2014 01:00 8,8 C 6,7 C 90 % 1025,9 hPa 0,0 l/m 0,00 h 0,00 h 0,0 UV-I 0 W/m 0,0 km/h (0 Bft)
17.05.2014 02:00 8,5 C 6,5 C 92 % 1025,5 hPa 0,0 l/m 0,00 h 0,00 h 0,0 UV-I 0 W/m 0,0 km/h (0 Bft)
17.05.2014 03:00 8,0 C 6,1 C 94 % 1025,2 hPa 0,0 l/m 0,00 h 0,00 h 0,0 UV-I 0 W/m 0,0 km/h (0 Bft)
17.05.2014 04:00 7,5 C 5,7 C 95 % 1024,8 hPa 0,0 l/m 0,00 h 0,00 h 0,0 UV-I 0 W/m 0,0 km/h (0 Bft)
17.05.2014 05:00 7,0 C 5,1 C 96 % 1024,4 hPa 0,0 l/m 0,00 h 0,00 h 0,0 UV-I 8 W/m 0,0 km/h (0 Bft)
17.05.2014 06:00 6,9 C 5,4 C 97 % 1024,3 hPa 0,0 l/m 0,00 h 0,00 h 0,0 UV-I 28 W/m 0,0 km/h (0 Bft)
17.05.2014 07:00 8,4 C 7,3 C 98 % 1024,4 hPa 0,0 l/m 0,00 h 0,00 h 0,0 UV-I 90 W/m 0,6 km/h (0 Bft)
17.05.2014 08:00 10,0 C 9,8 C 95 % 1024,5 hPa 0,0 l/m 0,00 h 0,00 h 0,0 UV-I 174 W/m 5,4 km/h (1 Bft)
17.05.2014 09:00 10,6 C 10,6 C 92 % 1024,5 hPa 0,0 l/m 0,00 h 0,00 h 0,0 UV-I 148 W/m 8,0 km/h (2 Bft)
17.05.2014 10:00 11,1 C 11,2 C 91 % 1024,3 hPa 0,0 l/m 0,00 h 0,00 h 0,6 UV-I 213 W/m 9,9 km/h (2 Bft)
17.05.2014 11:00 12,3 C 13,4 C 86 % 1024,2 hPa 0,0 l/m 0,50 h 0,00 h 1,8 UV-I 432 W/m 10,7 km/h (2 Bft)
17.05.2014 12:00 14,1 C 15,9 C 80 % 1023,6 hPa 0,0 l/m 0,67 h 0,00 h 2,9 UV-I 610 W/m 12,6 km/h (3 Bft)
17.05.2014 13:00 15,1 C 16,2 C 77 % 1023,1 hPa 0,0 l/m 0,80 h 0,00 h 2,6 UV-I 668 W/m 12,6 km/h (3 Bft)
17.05.2014 14:00 15,9 C 16,5 C 74 % 1022,6 hPa 0,0 l/m 0,77 h 0,00 h 3,6 UV-I 722 W/m 12,5 km/h (3 Bft)
17.05.2014 15:00 17,1 C 19,1 C 70 % 1021,8 hPa 0,0 l/m 0,97 h 0,00 h 3,3 UV-I 734 W/m 15,0 km/h (3 Bft)
17.05.2014 16:00 17,9 C 18,3 C 64 % 1021,3 hPa 0,0 l/m 0,97 h 0,00 h 2,3 UV-I 635 W/m 13,7 km/h (3 Bft)
17.05.2014 17:00 18,2 C 16,8 C 63 % 1020,6 hPa 0,0 l/m 0,97 h 0,00 h 1,2 UV-I 492 W/m 11,4 km/h (2 Bft)
17.05.2014 18:00 18,3 C 16,7 C 64 % 1020,2 hPa 0,0 l/m 0,23 h 0,00 h 0,6 UV-I 159 W/m 12,2 km/h (3 Bft)
17.05.2014 19:00 18,2 C 16,5 C 64 % 1020,0 hPa 0,0 l/m 0,00 h 0,00 h 0,0 UV-I 55 W/m 6,9 km/h (2 Bft)
17.05.2014 20:00 17,1 C 14,8 C 69 % 1019,8 hPa 0,0 l/m 0,00 h 0,00 h 0,0 UV-I 26 W/m 1,7 km/h (1 Bft)
17.05.2014 21:00 14,8 C 12,0 C 79 % 1019,7 hPa 0,0 l/m 0,00 h 0,00 h 0,0 UV-I 6 W/m 0,0 km/h (0 Bft)
17.05.2014 22:00 12,8 C 10,3 C 86 % 1019,6 hPa 0,0 l/m 0,00 h 0,00 h 0,0 UV-I 0 W/m 0,0 km/h (0 Bft)
17.05.2014 23:00 11,4 C 9,2 C 91 % 1019,3 hPa 0,0 l/m 0,00 h 0,00 h 0,0 UV-I 0 W/m 0,0 km/h (0 Bft)
18.05.2014 00:00 10,4 C 8,5 C 94 % 1019,2 hPa 0,0 l/m 0,00 h 0,00 h 0,0 UV-I 0 W/m 0,0 km/h (0 Bft)
18.05.2014 01:00 9,6 C 7,9 C 95 % 1018,9 hPa 0,0 l/m 0,00 h 0,00 h 0,0 UV-I 0 W/m 0,0 km/h (0 Bft)
18.05.2014 02:00 9,0 C 7,2 C 96 % 1018,6 hPa 0,0 l/m 0,00 h 0,00 h 0,0 UV-I 0 W/m 0,0 km/h (0 Bft)
18.05.2014 03:00 8,4 C 6,8 C 97 % 1018,2 hPa 0,0 l/m 0,00 h 0,00 h 0,0 UV-I 0 W/m 0,0 km/h (0 Bft)
18.05.2014 04:00 7,9 C 6,3 C 97 % 1017,8 hPa 0,0 l/m 0,00 h 0,00 h 0,0 UV-I 0 W/m 0,0 km/h (0 Bft)
18.05.2014 05:00 7,4 C 6,1 C 98 % 1017,5 hPa 0,0 l/m 0,00 h 0,00 h 0,0 UV-I 8 W/m 0,0 km/h (0 Bft)
18.05.2014 06:00 8,0 C 6,5 C 98 % 1017,0 hPa 0,0 l/m 0,00 h 0,00 h 0,0 UV-I 26 W/m 0,0 km/h (0 Bft)
18.05.2014 07:00 9,6 C 8,3 C 98 % 1016,8 hPa 0,0 l/m 0,00 h 0,00 h 0,0 UV-I 54 W/m 0,2 km/h (0 Bft)
18.05.2014 08:00 12,5 C 10,7 C 94 % 1016,9 hPa 0,0 l/m 0,93 h 0,00 h 0,5 UV-I 312 W/m 2,9 km/h (1 Bft)
18.05.2014 09:00 16,2 C 14,5 C 78 % 1016,3 hPa 0,0 l/m 0,97 h 0,00 h 1,1 UV-I 480 W/m 0,5 km/h (0 Bft)
18.05.2014 10:00 18,5 C 22,9 C 71 % 1015,7 hPa 0,0 l/m 0,97 h 0,00 h 2,3 UV-I 624 W/m 2,6 km/h (1 Bft)
18.05.2014 11:00 19,8 C 23,0 C 65 % 1015,1 hPa 0,0 l/m 0,97 h 0,00 h 3,4 UV-I 764 W/m 4,4 km/h (1 Bft)
18.05.2014 12:00 20,8 C 23,8 C 63 % 1014,6 hPa 0,0 l/m 0,70 h 0,00 h 3,6 UV-I 708 W/m 7,8 km/h (2 Bft)
18.05.2014 13:00 21,2 C 22,0 C 61 % 1013,8 hPa 0,0 l/m 0,80 h 0,00 h 2,8 UV-I 787 W/m 7,5 km/h (2 Bft)
18.05.2014 14:00 21,3 C 21,9 C 58 % 1013,2 hPa 0,0 l/m 0,47 h 0,00 h 3,1 UV-I 582 W/m 3,6 km/h (1 Bft)
18.05.2014 15:00 22,0 C 23,1 C 55 % 1012,5 hPa 0,0 l/m 0,60 h 0,00 h 2,8 UV-I 574 W/m 4,7 km/h (1 Bft)
18.05.2014 16:00 21,7 C 21,9 C 56 % 1011,7 hPa 0,0 l/m 0,43 h 0,00 h 1,7 UV-I 412 W/m 4,5 km/h (1 Bft)
18.05.2014 17:00 21,8 C 20,6 C 53 % 1010,9 hPa 0,0 l/m 0,70 h 0,00 h 1,2 UV-I 390 W/m 4,8 km/h (1 Bft)
18.05.2014 18:00 21,8 C 19,8 C 53 % 1010,3 hPa 0,0 l/m 0,23 h 0,00 h 0,7 UV-I 170 W/m 3,4 km/h (1 Bft)
18.05.2014 19:00 21,2 C 18,7 C 54 % 1009,8 hPa 0,0 l/m 0,00 h 0,00 h 0,0 UV-I 53 W/m 1,1 km/h (0 Bft)
18.05.2014 20:00 19,7 C 16,1 C 63 % 1009,5 hPa 0,0 l/m 0,00 h 0,00 h 0,0 UV-I 25 W/m 0,0 km/h (0 Bft)
18.05.2014 21:00 17,1 C 13,7 C 75 % 1009,6 hPa 0,0 l/m 0,00 h 0,00 h 0,0 UV-I 8 W/m 0,0 km/h (0 Bft)
18.05.2014 22:00 15,0 C 12,1 C 84 % 1009,5 hPa 0,0 l/m 0,00 h 0,00 h 0,0 UV-I 0 W/m 0,0 km/h (0 Bft)
18.05.2014 23:00 13,7 C 11,2 C 89 % 1009,2 hPa 0,0 l/m 0,00 h 0,00 h 0,0 UV-I 0 W/m 0,0 km/h (0 Bft)
Min-Datum _ 15.05.14 15.05.14 16.05.14 12.05.14 - - - - - 12.05.14
_ Min-Zeit 05:48 05:26 19:38 00:00 - - - - - 00:02
Minimum _ 3,3 C 1,7 C 48 % 1006,3 hPa - - - - - 0,0 km/h (0 Bft)
Max-Datum _ 18.05.14 18.05.14 15.05.14 15.05.14 12.05.14 12.05.14 12.05.14 15.05.14 14.05.14 12.05.14
_ Max-Zeit 15:36 15:42 03:34 12:14 15:08 09:36 03:54 13:56 13:16 06:32
Maximum _ 23,2 C 26,7 C 100 % 1035,6 hPa 4,6 l/m 0,03 h 0,03 h 4,6 UV-I 1093 W/m 38,6 km/h
W-SW (5 Bft)
Durchschnitt _ 11,1 C 10,2 C 83 % 1022,0 hPa #14,4 l/m #29:14 h #11:16 h 1,6 UV-I 246 W/m 5,2 km/h (1 Bft)
© 2014 W. Hausmann